METAR Data
IDs: Format: Raw Decoded Include TAF

Data at: 1003 UTC 11 May 2021

LIBA 110855Z 08007KT CAVOK 25/13 Q1013 RMK SKC VIS MIN 9999 WIND THR11 09007KT WIND THR29 /////KT BLU

LIBC 110850Z 19007KT 140V220 9999 FEW020 21/16 Q1015

LIBD 110950Z 07007KT 030V090 CAVOK 23/11 Q1013

LIBF 110850Z 09005KT 050V130 CAVOK 26/11 Q1012

LIBG 110850Z 14003KT 040V180 CAVOK 21/15 Q1014

LIBP 110950Z AUTO 05008KT 020V080 9999 NCD 22/16 Q1012

No METAR found for LIBR

LIBV 110855Z 17009KT CAVOK 21/07 Q1014 RMK SKC VIS MIN 9999 WIND THR32 18008KT WIND THR14 18008KT BLU

LICA 110950Z AUTO 25007KT 9999 NCD 23/16 Q1014

LICC 110950Z 12011KT CAVOK 24/16 Q1015

LICD 110950Z AUTO 13005KT 9999 NCD 21/20 Q1014

LICG 110850Z 22006KT CAVOK 21/13 Q1015

LICJ 110950Z 36005KT CAVOK 21/17 Q1014

LICR 110950Z AUTO 21011KT 170V250 9999 NCD 21/16 Q1015

LICT 110855Z 17015KT CAVOK 24/12 Q1014 RMK SCT FEW100 SCT200 VIS MIN 9999 WIND THR13 19014KT BLU

LICZ 110855Z 23002KT CAVOK 23/08 Q1014 RMK SKC VIS MIN 9999 WIND THR28 1300KT WIND THR10 19002KT A2997 BLU

LIEA 110950Z 22011KT 200V260 9999 FEW010 SCT025 18/16 Q1013

LIEE 110950Z AUTO 36006KT 9999 -RA FEW064/// BKN096/// 19/16 Q1014

LIED 110919Z 27004KT 250V310 9000 TS FEW010 FEW020CB BKN030 19/17 Q1013 RMK OVC VIS MIN 9000 WIND THR35 29003KT WIND THR17 29004KT BLU

LIEO 110950Z 27005KT 7000 SCT025 BKN055 18/16 Q1013

LIPR 110950Z 12005KT 060V230 9999 FEW070 23/13 Q1011

LIPY 110950Z AUTO 08009KT 040V110 9999 SCT130/// 24/10 Q1011

LIRA 110950Z 19013KT CAVOK 24/11 Q1013

LIRE 110855Z 16015KT CAVOK 24/14 Q1013 RMK SCT SCT080 VIS MIN 9999 WIND THR13 15013KT WIND THR31 /////KT BLU

LIRF 110950Z 19012KT CAVOK 23/14 Q1013 NOSIG

LIRG 110855Z 11010KT CAVOK 25/12 Q1014 RMK SCT SCT100 MON NE LIB NC VIS MIN 9999 BLU

LIRH 110855Z 16005KT 9999 SCT035 22/13 Q1014 RMK BKN MON LIB NC VIS MIN 9999 WIND THR16 17004KT BLU

LIRL 110855Z 17007KT 9999 SCT060 24/14 Q1014 RMK SCT MON LIB NC VIS MIN 9999 WIND THR12 /////KT WIND THR30 17007KT BLU

LIRM 110855Z /////KT 9999 FEW025 24/01 Q1014

LIRN 110950Z 19006KT 160V230 CAVOK 24/11 Q1014 NOSIG

LIRP 110945Z 13005KT 8000 -RA SCT040 BKN080 15/13 Q1010 NOSIG

LIRQ 110950Z 14007KT 090V170 9999 -RA FEW040 20/11 Q1011

LIRS 110855Z 14016KT 9999 -RA FEW025 20/15 Q1011 RMK BKN BKN090 VIS MIN 9999 WIND THR03 14012KT WIND THR21 15012KT BLU

LIRZ 110950Z AUTO 25006KT 210V280 9999 FEW130/// 23/12 Q1012

LMML 110945Z 13017KT CAVOK 23/15 Q1015 NOSIG

DTTA 110930Z 29010KT 250V320 9999 SCT020 BKN030 22/13 Q1015

DTTJ 110930Z 36019KT 8000 NSC 22/18 Q1011 NOSIG